X

Important NEWS



New Hub Active

Miami is our new hub! Old members can request transfer via hr@dlxairways.net

Thank you very much and have nice flight.


Deluxe Airways.

X

Tours



Hello again, we created one nice test tour for all pilots to attend. also this is ment to be testing of our tour system

Available Tours

If you find some issues please inform us.

Thank you very much and have nice flight.


Deluxe Airways.

 METAR AND TAF INFORMATION
ArrayMETAR FOR LIRF
99907267 6 LIRF 160420Z 34002KT CAVOK 17/17 Q1014 NOSIG LIRF 2019-06-16T04:20:00Z 41.78 12.22 17.0 17.0 340 2 6.21 29.940945 TRUE VFR METAR 3.0 LIRF 160350Z 03003KT CAVOK 18/17 Q1014 NOSIG LIRF 2019-06-16T03:50:00Z 41.78 12.22 18.0 17.0 30 3 6.21 29.940945 TRUE VFR METAR 3.0 LIRF 160320Z 01003KT CAVOK 18/17 Q1014 NOSIG LIRF 2019-06-16T03:20:00Z 41.78 12.22 18.0 17.0 10 3 6.21 29.940945 TRUE VFR METAR 3.0 LIRF 160250Z 30002KT CAVOK 19/17 Q1014 NOSIG LIRF 2019-06-16T02:50:00Z 41.78 12.22 19.0 17.0 300 2 6.21 29.940945 TRUE VFR METAR 3.0

 AIRPORT MAP

 RUNWAY INFORMATION
Runway 07 Runway length 10849 ft Runway width 148 ft
Runway elevation 7 ft Runway displaced threshold 1365 ft Runway heading 70
Runway 25 Runway length 10849 ft Runway width 148 ft
Runway elevation 7 ft Runway displaced threshold 0 ft Runway heading 250
Runway 16C Runway length 11818 ft Runway width 148 ft
Runway elevation 11 ft Runway displaced threshold 0 ft Runway heading 163
Runway 34C Runway length 11818 ft Runway width 148 ft
Runway elevation 4 ft Runway displaced threshold 0 ft Runway heading 343
Runway 16L Runway length 12795 ft Runway width 197 ft
Runway elevation 14 ft Runway displaced threshold 0 ft Runway heading 163
Runway 34R Runway length 12795 ft Runway width 197 ft
Runway elevation 7 ft Runway displaced threshold 0 ft Runway heading 343
Runway 16R Runway length 12795 ft Runway width 197 ft
Runway elevation 7 ft Runway displaced threshold 0 ft Runway heading 163
Runway 34L Runway length 12795 ft Runway width 197 ft
Runway elevation 8 ft Runway displaced threshold 1053 ft Runway heading 343

 AIRPORT FREQUENCIES
Type ARR Name ROMA DIREC Frequency 119.2 MHZ
Type ATIS Name ATIS Frequency 114.9 MHZ
Type CLD Name FIUME RAMP Frequency 121.725 MHZ
Type GND Name FIUME GND/ Frequency 121.8 MHZ
Type TWR Name FIUME TWR Frequency 118.7 MHZ

 AIRPORT NEAR NAVIGATION AIDS
Type NDB Name Fiumicino Frequency 354 KHZ
Type NDB Name Fiumicino Frequency 421 KHZ
Type NDB Name Fiumicino Frequency 345 KHZ
Type VOR-DME Name Ostia Frequency 114900 KHZ
Type NDB Name Ostia Frequency 321 KHZ



Powered by Virtual Airlines Manager [v2.6.2]

Template code change by DeluxeAir